createdAt,value
2023-01-03T00:02:20.553Z,91.63
2023-01-03T00:04:50.031Z,82.93
2023-01-03T00:07:33.877Z,89.80
2023-01-03T00:10:03.281Z,93.10
2023-01-03T00:12:32.228Z,86.60
2023-01-03T00:15:00.469Z,89.50
2023-01-03T00:17:28.851Z,77.05
2023-01-03T00:19:57.006Z,82.20
2023-01-03T00:22:24.729Z,80.03
2023-01-03T00:24:53.246Z,76.18
2023-01-03T00:27:20.932Z,78.80
2023-01-03T00:29:48.554Z,75.00
2023-01-03T00:32:16.289Z,76.28
2023-01-03T00:34:45.318Z,79.20
2023-01-03T00:37:13.850Z,76.63
2023-01-03T00:39:41.553Z,79.13
2023-01-03T00:42:09.251Z,74.03
2023-01-03T00:44:37.137Z,81.37
2023-01-03T00:47:04.784Z,77.57
2023-01-03T00:49:32.445Z,79.70
2023-01-03T00:52:00.151Z,82.10
2023-01-03T00:54:27.765Z,73.43
2023-01-03T00:56:56.205Z,78.47
2023-01-03T00:59:23.831Z,78.10
2023-01-03T01:01:54.218Z,79.53
2023-01-03T01:04:22.005Z,77.10
2023-01-03T01:06:51.478Z,83.47
2023-01-03T01:09:20.937Z,81.85
2023-01-03T01:11:48.927Z,74.15
2023-01-03T01:14:20.262Z,77.80
2023-01-03T01:16:54.095Z,73.33
2023-01-03T01:19:23.404Z,74.18
2023-01-03T01:21:51.077Z,78.75
2023-01-03T01:24:18.810Z,78.70
2023-01-03T01:26:47.041Z,82.63
2023-01-03T01:29:15.643Z,78.45
2023-01-03T01:31:44.131Z,81.40
2023-01-03T01:34:12.319Z,83.93
2023-01-03T01:36:42.052Z,70.53
2023-01-03T01:39:13.260Z,74.47
2023-01-03T01:42:00.269Z,79.27
2023-01-03T01:44:40.202Z,76.03
2023-01-03T01:47:17.665Z,80.43
2023-01-03T01:49:47.646Z,79.05
2023-01-03T01:52:16.869Z,83.65
2023-01-03T01:54:44.710Z,80.97
2023-01-03T01:57:15.011Z,75.33
2023-01-03T01:59:42.985Z,81.10
2023-01-03T02:02:11.420Z,75.05
2023-01-03T02:04:40.225Z,80.03
2023-01-03T02:07:08.269Z,75.55
2023-01-03T02:09:35.890Z,69.60
2023-01-03T02:12:44.669Z,86.00
2023-01-03T02:15:18.472Z,77.22
2023-01-03T02:17:46.249Z,80.20
2023-01-03T02:20:26.541Z,75.20
2023-01-03T02:22:59.995Z,77.40
2023-01-03T02:25:46.125Z,84.00
2023-01-03T02:28:16.605Z,77.78
2023-01-03T02:30:44.200Z,78.60
2023-01-03T02:33:19.024Z,70.38
2023-01-03T02:35:46.689Z,83.18
2023-01-03T02:38:26.233Z,75.80
2023-01-03T02:41:00.152Z,75.78
2023-01-03T02:43:37.505Z,78.97
2023-01-03T02:46:07.686Z,83.05
2023-01-03T02:48:48.341Z,80.68
2023-01-03T02:51:22.030Z,84.07
2023-01-03T02:53:51.208Z,75.30
2023-01-03T02:56:22.246Z,75.20
2023-01-03T02:58:53.739Z,86.03
2023-01-03T03:01:21.474Z,93.90
2023-01-03T03:03:49.571Z,82.23
2023-01-03T03:06:36.247Z,83.45
2023-01-03T03:09:04.433Z,84.30
2023-01-03T03:11:53.453Z,79.93
2023-01-03T03:14:23.938Z,79.70
2023-01-03T03:16:52.884Z,81.07
2023-01-03T03:19:50.165Z,80.43
2023-01-03T03:22:45.643Z,86.97
2023-01-03T03:25:34.968Z,84.97
2023-01-03T03:28:30.247Z,79.28
2023-01-03T03:31:00.357Z,88.20
2023-01-03T03:33:29.661Z,86.43
2023-01-03T03:36:08.505Z,83.93
2023-01-03T03:38:37.940Z,84.00
2023-01-03T03:41:36.111Z,80.47
2023-01-03T03:44:36.997Z,76.70
2023-01-03T03:47:09.744Z,79.43
2023-01-03T03:49:38.919Z,89.03
2023-01-03T03:52:08.403Z,86.68
2023-01-03T03:54:37.565Z,88.00
2023-01-03T03:57:11.706Z,88.78
2023-01-03T03:59:40.878Z,82.55
2023-01-03T04:02:09.262Z,72.60
2023-01-03T04:04:39.440Z,78.78
2023-01-03T04:07:07.077Z,80.18
2023-01-03T04:09:34.838Z,70.70
2023-01-03T04:12:02.482Z,82.53
2023-01-03T04:14:30.177Z,72.85
2023-01-03T04:16:57.936Z,79.60
2023-01-03T04:19:25.666Z,81.38
2023-01-03T04:21:53.335Z,81.07
2023-01-03T04:24:22.288Z,82.37
2023-01-03T04:26:49.979Z,85.82
2023-01-03T04:29:17.687Z,89.63
2023-01-03T04:31:45.350Z,82.68
2023-01-03T04:34:13.081Z,84.63
2023-01-03T04:36:40.693Z,76.63
2023-01-03T04:39:08.425Z,84.67
2023-01-03T04:41:36.290Z,74.38
2023-01-03T04:44:04.874Z,75.55
2023-01-03T04:46:33.517Z,85.40
2023-01-03T04:49:01.586Z,80.90
2023-01-03T04:51:29.777Z,78.65
2023-01-03T04:53:57.624Z,76.63
2023-01-03T04:56:29.178Z,80.15
2023-01-03T04:58:56.831Z,86.00
2023-01-03T05:01:25.897Z,86.47
2023-01-03T05:03:57.416Z,81.20
2023-01-03T05:06:25.206Z,80.60
2023-01-03T05:08:52.905Z,78.03
2023-01-03T05:11:20.647Z,76.60
2023-01-03T05:13:48.370Z,86.72
2023-01-03T05:16:16.317Z,85.53
2023-01-03T05:18:45.295Z,75.90
2023-01-03T05:21:36.005Z,77.10
2023-01-03T05:24:22.732Z,82.82
2023-01-03T05:26:50.877Z,72.03
2023-01-03T05:29:21.221Z,74.57
2023-01-03T05:31:49.155Z,73.77
2023-01-03T05:34:16.968Z,70.50
2023-01-03T05:36:44.605Z,79.47
2023-01-03T05:39:12.288Z,70.38
2023-01-03T05:41:58.930Z,70.07
2023-01-03T05:44:27.304Z,70.35
2023-01-03T05:46:54.980Z,77.85
2023-01-03T05:49:22.685Z,69.85
2023-01-03T05:51:50.397Z,69.93
2023-01-03T05:54:18.907Z,71.97
2023-01-03T05:56:46.722Z,68.90
2023-01-03T05:59:14.740Z,70.82
2023-01-03T06:01:42.507Z,77.88
2023-01-03T06:04:10.286Z,70.82
2023-01-03T06:06:37.991Z,73.53
2023-01-03T06:09:05.654Z,71.68
2023-01-03T06:11:33.337Z,67.45
2023-01-03T06:14:01.045Z,70.47
2023-01-03T06:16:47.365Z,68.50
2023-01-03T06:19:15.062Z,66.45
2023-01-03T06:21:42.808Z,70.28
2023-01-03T06:24:10.502Z,63.67
2023-01-03T06:26:38.437Z,69.25
2023-01-03T06:29:06.723Z,64.28
2023-01-03T06:31:34.506Z,70.00
2023-01-03T06:34:02.185Z,69.55
2023-01-03T06:36:32.145Z,69.53
2023-01-03T06:38:59.833Z,67.65
2023-01-03T06:41:27.426Z,71.15
2023-01-03T06:43:55.321Z,71.90
2023-01-03T06:46:41.741Z,76.03
2023-01-03T06:49:35.278Z,70.25
2023-01-03T06:52:23.643Z,68.57
2023-01-03T06:54:51.532Z,66.70
2023-01-03T06:57:25.923Z,68.97
2023-01-03T06:59:55.172Z,66.43
2023-01-03T07:02:23.024Z,59.40
2023-01-03T07:04:50.896Z,69.60
2023-01-03T07:07:18.780Z,71.82
2023-01-03T07:09:46.441Z,72.97
2023-01-03T07:12:32.509Z,70.03
2023-01-03T07:15:00.167Z,66.60
2023-01-03T07:17:27.861Z,75.60
2023-01-03T07:19:55.507Z,69.22
2023-01-03T07:22:23.304Z,71.32
2023-01-03T07:24:50.958Z,69.70
2023-01-03T07:27:18.616Z,69.55
2023-01-03T07:29:46.366Z,69.95
2023-01-03T07:32:14.043Z,69.33
2023-01-03T07:34:41.681Z,74.07
2023-01-03T07:37:09.335Z,66.88
2023-01-03T07:39:37.195Z,68.63
2023-01-03T07:42:23.439Z,77.15
2023-01-03T07:44:51.124Z,69.73
2023-01-03T07:47:18.836Z,75.05
2023-01-03T07:49:46.578Z,76.93
2023-01-03T07:52:14.264Z,72.93
2023-01-03T07:54:41.897Z,76.00
2023-01-03T07:57:09.541Z,72.25
2023-01-03T07:59:37.634Z,70.55
2023-01-03T08:02:05.401Z,71.65
2023-01-03T08:04:33.146Z,69.63
2023-01-03T08:07:00.864Z,69.55
2023-01-03T08:09:47.264Z,72.88
2023-01-03T08:12:33.529Z,73.13
2023-01-03T08:15:01.220Z,67.63
2023-01-03T08:17:28.900Z,63.03
2023-01-03T08:19:56.576Z,69.77
2023-01-03T08:22:24.262Z,63.33
2023-01-03T08:24:52.347Z,74.07
2023-01-03T08:27:20.044Z,69.47
2023-01-03T08:29:47.986Z,68.78
2023-01-03T08:32:16.154Z,69.53
2023-01-03T08:34:44.662Z,67.03
2023-01-03T08:37:13.399Z,68.67
2023-01-03T08:39:46.103Z,65.32
2023-01-03T08:42:15.167Z,67.72
2023-01-03T08:44:45.140Z,63.95
2023-01-03T08:47:13.766Z,66.30
2023-01-03T08:49:41.514Z,69.43
2023-01-03T08:52:09.328Z,63.80
2023-01-03T08:54:38.035Z,61.15
2023-01-03T08:57:05.810Z,63.63
2023-01-03T08:59:33.479Z,65.82
2023-01-03T09:02:01.968Z,67.97
2023-01-03T09:04:29.920Z,64.23
2023-01-03T09:06:57.538Z,65.75
2023-01-03T09:09:25.203Z,70.57
2023-01-03T09:11:52.865Z,67.95
2023-01-03T09:14:20.552Z,63.13
2023-01-03T09:16:49.485Z,67.03
2023-01-03T09:19:17.477Z,61.03
2023-01-03T09:21:45.214Z,64.57
2023-01-03T09:24:12.817Z,67.63
2023-01-03T09:26:40.482Z,68.53
2023-01-03T09:29:08.253Z,68.25
2023-01-03T09:31:40.007Z,72.20
2023-01-03T09:34:08.188Z,65.57
2023-01-03T09:36:38.473Z,70.55
2023-01-03T09:39:06.079Z,69.72
2023-01-03T09:41:34.004Z,67.20
2023-01-03T09:44:03.668Z,66.60
2023-01-03T09:46:32.777Z,61.90
2023-01-03T09:49:01.186Z,60.97
2023-01-03T09:52:05.610Z,65.75
2023-01-03T09:54:58.465Z,63.78
2023-01-03T09:57:46.718Z,66.80
2023-01-03T10:00:36.128Z,67.82
2023-01-03T10:03:22.383Z,61.17
2023-01-03T10:05:56.155Z,63.50
2023-01-03T10:08:37.831Z,62.00
2023-01-03T10:11:28.796Z,65.93
2023-01-03T10:14:05.715Z,61.20
2023-01-03T10:16:48.904Z,71.97
2023-01-03T10:19:25.607Z,63.22
2023-01-03T10:22:00.911Z,63.58
2023-01-03T10:24:32.151Z,68.15
2023-01-03T10:27:15.037Z,67.68
2023-01-03T10:29:42.819Z,65.65
2023-01-03T10:32:10.475Z,60.53
2023-01-03T10:34:38.848Z,73.90
2023-01-03T10:37:32.800Z,65.60
2023-01-03T10:40:04.988Z,62.35
2023-01-03T10:42:34.708Z,61.70
2023-01-03T10:45:04.416Z,69.20
2023-01-03T10:47:32.078Z,69.07
2023-01-03T10:50:05.133Z,66.75
2023-01-03T10:52:35.001Z,64.90
2023-01-03T10:55:15.996Z,67.05
2023-01-03T10:57:46.533Z,70.90
2023-01-03T11:00:16.935Z,64.60
2023-01-03T11:02:44.770Z,71.20
2023-01-03T11:05:17.467Z,62.00
2023-01-03T11:07:45.619Z,70.50
2023-01-03T11:10:18.510Z,61.45
2023-01-03T11:12:49.624Z,61.25
2023-01-03T11:15:17.356Z,62.95
2023-01-03T11:17:56.975Z,60.70
2023-01-03T11:20:33.544Z,62.10
2023-01-03T11:23:03.979Z,62.47
2023-01-03T11:25:34.725Z,64.03
2023-01-03T11:28:21.520Z,63.70
2023-01-03T11:30:51.899Z,67.65
2023-01-03T11:33:38.499Z,63.80
2023-01-03T11:36:15.518Z,65.03
2023-01-03T11:38:49.255Z,60.30
2023-01-03T11:41:35.488Z,62.70
2023-01-03T11:44:05.870Z,67.90
2023-01-03T11:46:39.803Z,58.40
2023-01-03T11:49:10.553Z,63.38
2023-01-03T11:51:56.630Z,50.22
2023-01-03T11:54:46.602Z,57.20
2023-01-03T11:57:43.402Z,58.30
2023-01-03T12:00:38.007Z,53.35
2023-01-03T12:03:10.159Z,59.17
2023-01-03T12:05:37.966Z,57.08
2023-01-03T12:08:24.182Z,62.15
2023-01-03T12:10:55.794Z,62.08
2023-01-03T12:13:29.071Z,57.25
2023-01-03T12:16:12.676Z,57.42
2023-01-03T12:18:45.312Z,54.53
2023-01-03T12:21:16.083Z,62.53
2023-01-03T12:23:46.487Z,58.73
2023-01-03T12:26:15.628Z,60.20
2023-01-03T12:28:48.199Z,59.25
2023-01-03T12:31:25.060Z,54.03
2023-01-03T12:34:03.762Z,59.47
2023-01-03T12:36:43.905Z,51.50
2023-01-03T12:39:11.478Z,58.13
2023-01-03T12:41:57.112Z,53.90
2023-01-03T12:44:34.559Z,54.28
2023-01-03T12:47:03.192Z,55.95
2023-01-03T12:49:44.888Z,57.00
2023-01-03T12:52:17.330Z,58.83
2023-01-03T12:55:01.063Z,57.05
2023-01-03T12:57:31.508Z,53.28
2023-01-03T13:00:02.200Z,56.65
2023-01-03T13:02:39.120Z,53.92
2023-01-03T13:05:19.072Z,51.17
2023-01-03T13:08:08.495Z,52.45
2023-01-03T13:10:38.186Z,54.22
2023-01-03T13:13:06.180Z,58.35
2023-01-03T13:15:37.142Z,49.83
2023-01-03T13:18:23.402Z,49.70
2023-01-03T13:20:51.538Z,53.55
2023-01-03T13:23:22.176Z,51.67
2023-01-03T13:26:05.616Z,55.85
2023-01-03T13:28:37.398Z,52.28
2023-01-03T13:31:20.964Z,57.20
2023-01-03T13:33:58.903Z,48.42
2023-01-03T13:36:26.608Z,53.22
2023-01-03T13:38:55.041Z,46.97
2023-01-03T13:41:39.911Z,46.53
2023-01-03T13:44:17.314Z,50.05
2023-01-03T13:46:45.200Z,49.72
2023-01-03T13:49:23.941Z,47.63
2023-01-03T13:51:53.851Z,45.60
2023-01-03T13:54:21.476Z,50.85
2023-01-03T13:56:49.129Z,47.90
2023-01-03T13:59:17.916Z,47.38
2023-01-03T14:01:51.818Z,43.35
2023-01-03T14:04:45.756Z,45.67
2023-01-03T14:07:32.455Z,45.20
2023-01-03T14:10:00.252Z,44.83
2023-01-03T14:12:55.906Z,44.70
2023-01-03T14:15:27.876Z,51.58
2023-01-03T14:17:58.754Z,50.50
2023-01-03T14:20:31.890Z,46.90
2023-01-03T14:23:17.089Z,48.65
2023-01-03T14:25:50.072Z,45.17
2023-01-03T14:28:19.653Z,50.83
2023-01-03T14:30:49.584Z,50.88
2023-01-03T14:33:22.208Z,53.00
2023-01-03T14:35:50.063Z,48.47
2023-01-03T14:38:25.071Z,48.03
2023-01-03T14:40:54.463Z,50.90
2023-01-03T14:43:22.278Z,50.58
2023-01-03T14:45:53.449Z,53.10
2023-01-03T14:48:21.357Z,49.08
2023-01-03T14:50:49.274Z,43.90
2023-01-03T14:53:17.589Z,48.67
2023-01-03T14:55:51.985Z,47.75
2023-01-03T14:58:22.842Z,48.87
2023-01-03T15:00:51.220Z,51.08
2023-01-03T15:03:19.578Z,50.45
2023-01-03T15:05:52.338Z,50.58
2023-01-03T15:08:22.690Z,48.97
2023-01-03T15:10:53.482Z,54.15
2023-01-03T15:13:26.747Z,49.40
2023-01-03T15:15:59.035Z,51.37
2023-01-03T15:18:34.807Z,46.38
2023-01-03T15:21:03.919Z,51.35
2023-01-03T15:23:37.640Z,52.88
2023-01-03T15:26:06.274Z,55.50
2023-01-03T15:28:39.059Z,51.08
2023-01-03T15:31:26.698Z,51.78
2023-01-03T15:34:03.582Z,54.42
2023-01-03T15:36:32.854Z,55.25
2023-01-03T15:39:00.740Z,57.13
2023-01-03T15:41:49.050Z,53.70
2023-01-03T15:44:19.752Z,51.20
2023-01-03T15:46:49.795Z,53.03
2023-01-03T15:49:19.953Z,54.08
2023-01-03T15:51:47.917Z,54.95
2023-01-03T15:54:16.837Z,51.15
2023-01-03T15:56:47.188Z,52.70
2023-01-03T15:59:19.535Z,55.40
2023-01-03T16:01:47.372Z,52.75
2023-01-03T16:04:15.156Z,54.72
2023-01-03T16:06:42.835Z,50.00
2023-01-03T16:09:11.834Z,58.97
2023-01-03T16:11:40.262Z,52.10
2023-01-03T16:14:12.562Z,49.08
2023-01-03T16:16:41.756Z,52.83
2023-01-03T16:19:14.280Z,52.75
2023-01-03T16:21:51.616Z,52.38
2023-01-03T16:24:29.720Z,56.20
2023-01-03T16:26:57.770Z,56.65
2023-01-03T16:29:25.443Z,58.00
2023-01-03T16:31:53.146Z,58.10
2023-01-03T16:34:22.410Z,53.72
2023-01-03T16:36:50.746Z,58.20
2023-01-03T16:39:18.300Z,57.40
2023-01-03T16:42:06.678Z,56.83
2023-01-03T16:44:35.170Z,56.50
2023-01-03T16:47:03.227Z,56.53
2023-01-03T16:49:32.688Z,59.93
2023-01-03T16:52:00.442Z,60.60
2023-01-03T16:54:28.211Z,57.40
2023-01-03T16:56:55.825Z,63.38
2023-01-03T16:59:23.856Z,54.93
2023-01-03T17:01:51.632Z,57.55
2023-01-03T17:04:19.396Z,52.47
2023-01-03T17:06:47.054Z,56.58
2023-01-03T17:09:20.516Z,57.53
2023-01-03T17:11:48.443Z,57.17
2023-01-03T17:14:20.607Z,61.40
2023-01-03T17:16:48.707Z,60.83
2023-01-03T17:20:02.236Z,61.17
2023-01-03T17:22:13.431Z,53.90
2023-01-03T17:24:41.117Z,60.75
2023-01-03T17:27:14.946Z,59.75
2023-01-03T17:29:42.657Z,60.53
2023-01-03T17:32:17.735Z,65.60
2023-01-03T17:34:45.467Z,58.80
2023-01-03T17:37:16.556Z,66.25
2023-01-03T17:39:44.469Z,62.30
2023-01-03T17:42:16.702Z,58.20
2023-01-03T17:45:04.975Z,62.70
2023-01-03T17:47:51.530Z,63.38
2023-01-03T17:50:19.336Z,64.82
2023-01-03T17:52:51.995Z,59.97
2023-01-03T17:55:24.885Z,60.53
2023-01-03T17:57:52.844Z,60.45
2023-01-03T18:00:21.863Z,67.10
2023-01-03T18:02:49.755Z,64.00
2023-01-03T18:05:26.193Z,66.13
2023-01-03T18:07:55.645Z,67.93
2023-01-03T18:10:27.181Z,67.40
2023-01-03T18:12:55.300Z,68.70
2023-01-03T18:15:22.917Z,64.60
2023-01-03T18:17:50.971Z,63.47
2023-01-03T18:20:19.779Z,64.90
2023-01-03T18:22:47.987Z,65.53
2023-01-03T18:25:22.941Z,72.60
2023-01-03T18:27:52.806Z,70.33
2023-01-03T18:30:20.600Z,71.47
2023-01-03T18:32:49.681Z,70.75
2023-01-03T18:35:24.272Z,71.53
2023-01-03T18:37:55.684Z,72.90
2023-01-03T18:40:27.682Z,71.88
2023-01-03T18:43:21.503Z,65.20
2023-01-03T18:45:49.635Z,62.20
2023-01-03T18:48:18.872Z,65.93
2023-01-03T18:50:53.664Z,67.30
2023-01-03T18:53:26.749Z,61.47
2023-01-03T18:55:54.576Z,66.00
2023-01-03T18:58:32.085Z,62.70
2023-01-03T19:00:59.745Z,60.40
2023-01-03T19:03:29.369Z,57.63
2023-01-03T19:05:58.550Z,64.20
2023-01-03T19:08:27.256Z,60.43
2023-01-03T19:10:55.165Z,61.10
2023-01-03T19:13:27.917Z,53.22
2023-01-03T19:15:55.640Z,61.47
2023-01-03T19:18:25.337Z,65.00
2023-01-03T19:20:52.936Z,64.57
2023-01-03T19:23:24.935Z,62.20
2023-01-03T19:25:53.051Z,62.35
2023-01-03T19:28:23.316Z,58.92
2023-01-03T19:30:51.123Z,56.60
2023-01-03T19:33:19.558Z,62.03
2023-01-03T19:35:47.500Z,56.80
2023-01-03T19:38:15.211Z,56.83
2023-01-03T19:40:47.924Z,56.53
2023-01-03T19:43:22.614Z,59.25
2023-01-03T19:45:50.471Z,53.72
2023-01-03T19:48:19.761Z,58.65
2023-01-03T19:50:47.753Z,61.30
2023-01-03T19:53:15.510Z,59.08
2023-01-03T19:55:52.284Z,56.33
2023-01-03T19:58:22.767Z,59.97
2023-01-03T20:00:51.296Z,67.05
2023-01-03T20:03:25.082Z,55.67
2023-01-03T20:05:52.735Z,58.53
2023-01-03T20:08:20.410Z,57.97
2023-01-03T20:10:48.195Z,68.28
2023-01-03T20:13:17.365Z,56.33
2023-01-03T20:15:45.764Z,56.78
2023-01-03T20:18:35.595Z,56.88
2023-01-03T20:21:21.683Z,52.55
2023-01-03T20:23:56.941Z,62.30
2023-01-03T20:26:28.732Z,61.70
2023-01-03T20:28:56.918Z,60.33
2023-01-03T20:31:25.144Z,61.35
2023-01-03T20:33:52.928Z,63.53
2023-01-03T20:36:24.621Z,70.82
2023-01-03T20:41:20.553Z,63.58
2023-01-03T20:43:50.318Z,53.17
2023-01-03T20:46:20.515Z,54.33
2023-01-03T20:48:56.027Z,59.55
2023-01-03T20:51:24.573Z,57.15
2023-01-03T20:53:55.015Z,57.58
2023-01-03T20:56:23.491Z,54.72
2023-01-03T20:58:51.191Z,57.08
2023-01-03T21:01:18.938Z,58.55
2023-01-03T21:03:46.824Z,57.50
2023-01-03T21:06:19.682Z,59.83
2023-01-03T21:08:56.767Z,68.25
2023-01-03T21:11:28.683Z,62.40
2023-01-03T21:13:57.098Z,63.90
2023-01-03T21:16:34.070Z,69.32
2023-01-03T21:19:06.761Z,62.92
2023-01-03T21:21:34.824Z,65.68
2023-01-03T21:24:02.582Z,63.92
2023-01-03T21:26:30.541Z,55.90
2023-01-03T21:28:58.567Z,56.38
2023-01-03T21:31:26.795Z,56.40
2023-01-03T21:33:54.547Z,70.25
2023-01-03T21:36:24.100Z,58.40
2023-01-03T21:38:51.969Z,64.32
2023-01-03T21:41:23.712Z,61.60
2023-01-03T21:46:19.564Z,57.53
2023-01-03T21:48:47.308Z,53.33
2023-01-03T21:51:19.013Z,57.05
2023-01-03T21:53:55.056Z,55.72
2023-01-03T21:56:24.150Z,51.80
2023-01-03T21:58:52.428Z,54.80
2023-01-03T22:01:24.524Z,51.78
2023-01-03T22:04:11.280Z,64.00
2023-01-03T22:06:39.953Z,57.22
2023-01-03T22:09:27.549Z,62.28
2023-01-03T22:11:55.185Z,60.88
2023-01-03T22:14:22.795Z,57.95
2023-01-03T22:16:50.506Z,56.63
2023-01-03T22:19:18.241Z,54.75
2023-01-03T22:21:45.862Z,53.72
2023-01-03T22:24:13.487Z,59.55
2023-01-03T22:26:41.163Z,70.68
2023-01-03T22:29:08.787Z,59.20
2023-01-03T22:31:36.485Z,64.85
2023-01-03T22:34:04.503Z,61.70
2023-01-03T22:36:32.196Z,61.58
2023-01-03T22:38:59.814Z,56.78
2023-01-03T22:41:27.495Z,65.82
2023-01-03T22:43:55.148Z,66.57
2023-01-03T22:46:22.888Z,61.38
2023-01-03T22:48:50.595Z,66.95
2023-01-03T22:51:18.232Z,66.40
2023-01-03T22:53:49.007Z,64.55
2023-01-03T22:56:17.946Z,59.42
2023-01-03T22:58:46.192Z,59.40
2023-01-03T23:01:18.317Z,58.30
2023-01-03T23:03:47.310Z,70.72
2023-01-03T23:06:17.400Z,55.58
2023-01-03T23:08:47.462Z,63.05
2023-01-03T23:11:35.156Z,71.40
2023-01-03T23:14:04.244Z,59.22
2023-01-03T23:16:35.134Z,55.78
2023-01-03T23:19:03.465Z,57.60
2023-01-03T23:21:31.177Z,50.35
2023-01-03T23:23:59.262Z,54.55
2023-01-03T23:26:27.075Z,62.45
2023-01-03T23:28:55.655Z,53.33
2023-01-03T23:31:24.754Z,51.67
2023-01-03T23:33:54.614Z,61.30
2023-01-03T23:36:22.271Z,53.83
2023-01-03T23:38:49.971Z,45.55
2023-01-03T23:41:17.929Z,50.25
2023-01-03T23:43:45.498Z,46.25
2023-01-03T23:46:17.142Z,44.65
2023-01-03T23:51:12.474Z,48.40
2023-01-03T23:53:41.147Z,47.85
2023-01-03T23:56:16.116Z,48.13
2023-01-03T23:58:44.088Z,45.60
